Time;durP1;ratioP1;P1;durP2;ratioP2;P2;SDS_P1;SDS_P2;PMS_P1;PMS_P2;Temp;Humidity;BMP_temperature;BMP_pressure;BME280_temperature;BME280_humidity;BME280_pressure;Samples;Min_cycle;Max_cycle;Signal;HPM_P1;HPM_P2
2021/09/22 00:00:38;;;;;;;1.67;1.58;;;;;;;20.64;56.27;100732.69;4991966;28;20113;-69
2021/09/22 00:03:06;;;;;;;1.80;1.70;;;;;;;20.56;56.41;100731.97;5059457;28;20065;-69
2021/09/22 00:05:32;;;;;;;2.25;1.52;;;;;;;20.52;56.65;100745.31;5058969;28;20034;-69
2021/09/22 00:07:58;;;;;;;1.70;1.60;;;;;;;20.49;56.92;100736.88;5059538;28;20041;-70
2021/09/22 00:10:24;;;;;;;2.05;1.48;;;;;;;20.47;56.77;100733.66;5059046;28;20468;-69
2021/09/22 00:12:50;;;;;;;3.17;1.60;;;;;;;20.35;56.98;100727.28;5059045;28;20064;-69
2021/09/22 00:15:18;;;;;;;2.13;1.70;;;;;;;20.44;57.05;100735.25;5058755;28;20028;-69
2021/09/22 00:17:43;;;;;;;2.13;1.73;;;;;;;20.50;56.71;100732.81;5005749;28;20038;-69
2021/09/22 00:20:11;;;;;;;1.77;1.50;;;;;;;20.54;56.55;100734.41;5096038;28;20031;-69
2021/09/22 00:22:37;;;;;;;1.63;1.42;;;;;;;20.45;56.44;100733.22;5114272;28;20028;-70
2021/09/22 00:25:05;;;;;;;3.35;1.70;;;;;;;20.51;56.31;100740.09;5095923;28;20062;-69
2021/09/22 00:27:31;;;;;;;3.63;1.60;;;;;;;20.42;57.08;100737.72;5095918;28;20027;-69
2021/09/22 00:29:58;;;;;;;1.63;1.45;;;;;;;20.41;56.37;100728.44;5095858;28;20073;-69
2021/09/22 00:32:25;;;;;;;4.95;1.83;;;;;;;20.32;56.67;100738.59;5095853;28;20035;-69
2021/09/22 00:34:50;;;;;;;1.60;1.30;;;;;;;20.25;57.52;100739.47;5095851;28;20027;-69
2021/09/22 00:37:16;;;;;;;4.70;1.90;;;;;;;20.31;56.72;100732.16;5095874;28;20031;-69
2021/09/22 00:39:41;;;;;;;1.70;1.60;;;;;;;20.27;56.81;100727.75;5114095;28;20028;-69
2021/09/22 00:42:07;;;;;;;2.67;1.80;;;;;;;20.33;56.71;100738.19;5096350;28;20034;-69
2021/09/22 00:44:56;;;;;;;3.95;1.83;;;;;;;20.27;57.95;100730.56;5096012;28;20397;-69
2021/09/22 00:47:30;;;;;;;3.78;1.60;;;;;;;20.29;56.80;100728.91;5095763;28;20114;-69
2021/09/22 00:49:56;;;;;;;1.30;1.20;;;;;;;20.33;56.13;100728.91;5095800;28;20061;-69
2021/09/22 00:52:23;;;;;;;3.25;1.30;;;;;;;20.39;55.49;100722.38;5095688;28;20039;-69
2021/09/22 00:54:48;;;;;;;1.80;1.40;;;;;;;20.33;55.73;100718.41;5095770;28;20484;-69
2021/09/22 00:57:17;;;;;;;2.88;1.38;;;;;;;20.32;55.80;100735.78;5096007;28;20055;-69
2021/09/22 00:59:43;;;;;;;1.20;1.10;;;;;;;20.27;55.84;100739.03;5095889;28;20046;-69
2021/09/22 01:02:09;;;;;;;2.17;1.23;;;;;;;20.22;56.35;100740.28;5095973;28;20027;-69
2021/09/22 01:04:35;;;;;;;1.20;1.10;;;;;;;20.12;56.31;100730.66;5095915;28;20028;-69
2021/09/22 01:07:07;;;;;;;1.92;1.20;;;;;;;20.16;56.26;100736.31;5096246;28;20035;-69
2021/09/22 01:09:33;;;;;;;2.30;1.20;;;;;;;20.18;56.03;100721.75;5099507;28;20039;-69
2021/09/22 01:11:59;;;;;;;1.35;1.02;;;;;;;20.18;55.80;100731.03;5118116;28;20038;-69
2021/09/22 01:14:26;;;;;;;4.72;1.08;;;;;;;20.15;56.19;100735.50;5099471;28;20452;-69
2021/09/22 01:16:53;;;;;;;1.33;1.23;;;;;;;20.10;58.38;100733.13;5099514;28;20062;-69
2021/09/22 01:19:20;;;;;;;1.25;1.00;;;;;;;20.09;56.66;100733.53;5098951;28;20073;-69
2021/09/22 01:21:49;;;;;;;1.75;1.23;;;;;;;20.21;55.99;100732.22;5118221;28;20111;-69
2021/09/22 01:24:15;;;;;;;1.98;1.25;;;;;;;20.17;56.08;100742.75;5117589;28;20104;-69
2021/09/22 01:26:42;;;;;;;0.90;0.90;;;;;;;20.05;56.09;100710.97;5099253;28;20026;-69
2021/09/22 01:29:08;;;;;;;5.95;1.33;;;;;;;19.94;56.80;100706.63;5117203;28;20032;-69
2021/09/22 01:31:39;;;;;;;1.25;1.23;;;;;;;20.03;56.82;100723.91;5099471;28;20035;-69
2021/09/22 01:34:07;;;;;;;2.20;1.10;;;;;;;20.03;57.36;100718.25;5117710;28;20024;-69
2021/09/22 01:36:32;;;;;;;1.73;1.15;;;;;;;19.99;56.81;100721.09;5099600;28;20049;-69
2021/09/22 01:38:58;;;;;;;2.92;1.30;;;;;;;19.97;57.36;100714.25;5099232;28;20505;-69
2021/09/22 01:41:24;;;;;;;1.80;1.60;;;;;;;19.96;57.31;100718.28;5098924;28;20023;-69
2021/09/22 01:43:50;;;;;;;3.35;1.23;;;;;;;19.75;57.52;100694.63;5098953;28;20115;-69
2021/09/22 01:46:16;;;;;;;2.13;1.40;;;;;;;19.85;58.12;100707.88;5099472;28;20073;-69
2021/09/22 01:48:42;;;;;;;1.40;1.23;;;;;;;19.83;57.68;100715.97;5098877;28;20440;-69
2021/09/22 01:51:09;;;;;;;2.55;1.33;;;;;;;19.82;58.37;100714.34;5098805;28;20027;-69
2021/09/22 01:53:35;;;;;;;3.60;1.35;;;;;;;19.88;57.98;100709.06;5098998;28;20378;-69
2021/09/22 01:56:02;;;;;;;1.63;1.50;;;;;;;19.92;57.60;100709.84;5099292;28;20035;-69
2021/09/22 01:58:28;;;;;;;1.65;1.17;;;;;;;19.89;57.99;100700.19;5098585;28;20027;-69
2021/09/22 02:00:56;;;;;;;1.60;1.20;;;;;;;19.81;58.54;100681.66;5099163;28;20111;-69
2021/09/22 02:03:23;;;;;;;2.17;1.10;;;;;;;19.71;57.76;100668.47;5098800;28;20031;-69
2021/09/22 02:05:49;;;;;;;1.35;1.25;;;;;;;19.99;57.42;100692.06;5098808;28;20482;-69
2021/09/22 02:08:14;;;;;;;1.52;1.02;;;;;;;20.01;56.95;100672.66;5098440;28;20114;-69
2021/09/22 02:10:40;;;;;;;4.47;1.35;;;;;;;19.82;59.53;100674.84;5098912;28;20092;-69
2021/09/22 02:13:07;;;;;;;1.13;1.08;;;;;;;19.69;58.47;100670.06;5116406;28;20066;-69
2021/09/22 02:15:32;;;;;;;2.33;1.30;;;;;;;19.71;57.96;100676.09;5098902;28;20031;-69
2021/09/22 02:17:58;;;;;;;2.80;1.17;;;;;;;19.63;58.15;100669.72;5116463;28;20491;-69
2021/09/22 02:20:24;;;;;;;1.13;1.00;;;;;;;19.69;59.10;100670.88;5097630;28;20034;-69
2021/09/22 02:22:51;;;;;;;1.52;1.42;;;;;;;19.61;57.58;100672.16;5098223;28;20131;-69
2021/09/22 02:25:17;;;;;;;2.40;1.50;;;;;;;19.69;57.86;100672.91;5098706;28;20058;-69
2021/09/22 02:27:42;;;;;;;3.78;1.60;;;;;;;19.68;57.79;100660.81;5098083;28;20031;-69
2021/09/22 02:30:13;;;;;;;2.33;1.98;;;;;;;19.60;59.48;100660.06;5098613;28;20028;-69
2021/09/22 02:32:39;;;;;;;2.28;1.48;;;;;;;19.47;58.43;100650.41;5098038;28;20126;-69
2021/09/22 02:35:06;;;;;;;1.50;1.35;;;;;;;19.67;57.68;100664.06;5097948;28;20035;-69
2021/09/22 02:37:31;;;;;;;1.30;1.10;;;;;;;19.53;59.01;100670.53;5115967;28;20062;-69
2021/09/22 02:39:57;;;;;;;1.35;1.00;;;;;;;19.55;58.26;100674.56;5097815;28;20055;-69
2021/09/22 02:42:23;;;;;;;2.55;1.30;;;;;;;19.56;58.33;100676.19;5097502;28;20040;-69
2021/09/22 02:44:50;;;;;;;1.38;1.25;;;;;;;19.50;59.57;100679.84;5116066;28;20503;-69
2021/09/22 02:47:19;;;;;;;1.15;1.13;;;;;;;19.58;58.05;100670.09;5097754;28;20126;-69
2021/09/22 02:49:45;;;;;;;1.48;1.38;;;;;;;19.59;58.20;100674.56;5098267;28;20027;-69
2021/09/22 02:52:11;;;;;;;1.05;0.95;;;;;;;19.51;60.16;100673.00;5097885;28;20081;-69
2021/09/22 02:54:37;;;;;;;1.48;1.30;;;;;;;19.52;58.71;100688.69;5097608;28;20521;-69
2021/09/22 02:57:02;;;;;;;1.40;1.13;;;;;;;19.50;58.49;100691.13;5097774;28;20039;-69
2021/09/22 02:59:28;;;;;;;3.63;1.65;;;;;;;19.51;57.96;100689.91;5098251;28;20027;-69
2021/09/22 03:01:53;;;;;;;1.42;1.25;;;;;;;19.41;58.49;100685.13;5097662;28;20381;-69
2021/09/22 03:04:19;;;;;;;2.47;1.40;;;;;;;19.37;58.34;100691.59;5098225;28;20035;-69
2021/09/22 03:06:45;;;;;;;3.33;1.80;;;;;;;19.35;58.39;100682.75;5096903;28;20031;-69
2021/09/22 03:09:10;;;;;;;2.80;2.50;;;;;;;19.30;58.23;100691.63;5097827;28;20089;-69
2021/09/22 03:11:36;;;;;;;3.13;2.83;;;;;;;19.30;58.38;100685.19;5097220;28;20562;-69
2021/09/22 03:14:02;;;;;;;3.58;3.28;;;;;;;19.29;58.83;100681.56;5115737;28;20032;-69
2021/09/22 03:16:30;;;;;;;3.83;2.33;;;;;;;19.24;58.69;100681.19;5097075;28;20031;-69
2021/09/22 03:18:56;;;;;;;2.03;1.92;;;;;;;19.37;57.89;100674.66;5067374;28;20511;-70
2021/09/22 03:21:21;;;;;;;3.38;2.00;;;;;;;19.29;58.30;100667.47;5060041;28;20034;-69
2021/09/22 03:23:47;;;;;;;4.07;1.90;;;;;;;19.30;58.09;100668.25;5060090;28;20354;-69
2021/09/22 03:26:12;;;;;;;3.67;2.63;;;;;;;19.31;57.75;100662.19;5059699;28;20501;-69
2021/09/22 03:28:38;;;;;;;3.00;2.10;;;;;;;19.26;57.72;100667.47;5059971;28;20038;-69
2021/09/22 03:31:06;;;;;;;1.60;1.30;;;;;;;19.21;57.81;100665.88;5058790;28;20455;-70
2021/09/22 03:33:32;;;;;;;3.58;2.00;;;;;;;19.21;57.97;100660.22;5059151;28;20104;-70
2021/09/22 03:35:58;;;;;;;2.58;1.50;;;;;;;19.11;57.66;100647.78;5059500;28;20053;-70
2021/09/22 03:38:24;;;;;;;3.72;1.30;;;;;;;19.19;57.92;100651.38;5059339;28;20053;-69
2021/09/22 03:40:50;;;;;;;1.65;1.33;;;;;;;19.25;57.46;100649.75;4992478;28;20018;-69
2021/09/22 03:43:15;;;;;;;0.95;0.95;;;;;;;19.24;57.56;100650.97;5059376;28;20473;-70
2021/09/22 03:45:41;;;;;;;1.23;1.13;;;;;;;19.19;57.74;100650.59;5059645;28;20064;-70
2021/09/22 03:48:07;;;;;;;1.45;1.35;;;;;;;19.18;59.69;100655.44;5059476;28;20549;-69
2021/09/22 03:50:32;;;;;;;2.65;2.45;;;;;;;19.21;58.24;100648.94;5059441;28;20121;-70
2021/09/22 03:52:58;;;;;;;1.70;1.60;;;;;;;19.33;57.04;100645.69;5059053;28;20481;-70
2021/09/22 03:55:23;;;;;;;3.38;1.27;;;;;;;19.29;57.05;100639.25;5059167;28;20026;-70
2021/09/22 03:57:49;;;;;;;1.48;1.38;;;;;;;19.25;57.69;100640.47;5059730;28;20030;-70
2021/09/22 04:00:15;;;;;;;1.55;1.25;;;;;;;19.17;58.17;100639.69;5058924;28;20472;-70
2021/09/22 04:02:40;;;;;;;1.70;1.27;;;;;;;19.19;57.72;100636.50;4992760;28;20038;-70
2021/09/22 04:05:06;;;;;;;1.92;1.23;;;;;;;19.13;57.89;100629.66;5059223;28;20027;-69
2021/09/22 04:07:32;;;;;;;2.28;1.85;;;;;;;19.09;58.38;100624.84;5059392;28;20413;-69
2021/09/22 04:09:57;;;;;;;3.63;1.60;;;;;;;19.04;59.11;100618.81;5059296;28;20030;-69
2021/09/22 04:12:23;;;;;;;3.55;1.40;;;;;;;19.05;58.86;100624.03;5059020;28;20031;-69
2021/09/22 04:14:48;;;;;;;1.90;1.50;;;;;;;19.01;58.52;100617.63;5059223;28;20473;-69
2021/09/22 04:17:14;;;;;;;2.42;1.10;;;;;;;19.16;58.25;100626.81;5059207;28;20505;-69
2021/09/22 04:19:40;;;;;;;1.50;1.02;;;;;;;19.14;59.09;100625.63;5058068;28;20107;-69
2021/09/22 04:22:05;;;;;;;4.35;1.42;;;;;;;19.14;59.46;100629.25;5059369;28;20053;-69
2021/09/22 04:24:31;;;;;;;3.92;1.50;;;;;;;19.16;58.34;100628.84;5058568;28;20407;-69
2021/09/22 04:26:56;;;;;;;1.58;1.15;;;;;;;19.14;58.43;100629.25;5058624;28;20026;-69
2021/09/22 04:29:22;;;;;;;3.53;2.22;;;;;;;19.12;58.57;100623.19;5058998;28;20088;-69
2021/09/22 04:31:48;;;;;;;3.80;1.50;;;;;;;19.07;58.84;100616.00;5059034;28;20117;-69
2021/09/22 04:34:13;;;;;;;1.23;1.13;;;;;;;19.03;59.26;100620.03;5058845;28;20054;-69
2021/09/22 04:36:43;;;;;;;2.03;1.40;;;;;;;18.91;59.96;100618.50;5058699;28;20461;-69
2021/09/22 04:39:09;;;;;;;1.33;1.23;;;;;;;18.87;60.81;100617.69;4991678;28;20030;-69
2021/09/22 04:41:35;;;;;;;1.20;1.10;;;;;;;18.92;59.86;100616.47;4991351;28;20064;-69
2021/09/22 04:44:00;;;;;;;1.52;1.42;;;;;;;18.97;59.33;100622.50;4997504;28;20034;-69
2021/09/22 04:46:26;;;;;;;1.35;1.25;;;;;;;18.98;59.27;100621.28;5064993;28;20037;-69
2021/09/22 04:48:52;;;;;;;1.77;1.40;;;;;;;18.97;59.16;100625.31;5065115;28;20105;-69
2021/09/22 04:51:19;;;;;;;1.98;1.20;;;;;;;18.98;59.14;100629.72;5065095;28;20030;-70
2021/09/22 04:53:45;;;;;;;1.63;1.40;;;;;;;18.88;59.22;100624.13;5065297;28;20038;-70
2021/09/22 04:56:10;;;;;;;1.90;1.10;;;;;;;18.80;59.59;100634.63;5065486;28;20064;-69
2021/09/22 04:58:36;;;;;;;2.83;1.45;;;;;;;18.72;59.08;100638.69;5064764;28;20393;-69
2021/09/22 05:01:02;;;;;;;3.03;1.67;;;;;;;18.77;59.56;100635.44;5064948;28;20037;-69
2021/09/22 05:03:30;;;;;;;2.58;1.83;;;;;;;18.75;59.10;100632.22;5065632;28;20114;-69
2021/09/22 05:05:58;;;;;;;3.08;1.98;;;;;;;18.97;58.73;100627.31;5065437;28;20359;-69
2021/09/22 05:08:24;;;;;;;2.53;2.08;;;;;;;19.50;58.29;100626.22;5064807;28;20026;-69
2021/09/22 05:10:49;;;;;;;7.85;2.33;;;;;;;20.10;56.26;100619.31;5064658;28;20066;-69
2021/09/22 05:13:15;;;;;;;4.20;1.60;;;;;;;20.65;54.27;100618.38;5064980;28;20087;-69
2021/09/22 05:15:40;;;;;;;1.60;1.50;;;;;;;21.20;53.97;100617.31;5065298;28;20452;-69
2021/09/22 05:18:06;;;;;;;2.30;2.10;;;;;;;21.80;53.25;100626.94;5086749;28;20463;-69
2021/09/22 05:20:35;;;;;;;2.13;1.65;;;;;;;22.27;49.06;100614.84;5102630;28;20035;-69
2021/09/22 05:23:00;;;;;;;2.28;1.90;;;;;;;22.66;48.05;100611.25;5120681;28;20027;-69
2021/09/22 05:25:26;;;;;;;2.78;1.90;;;;;;;23.04;47.30;100622.25;5120734;28;20085;-69
2021/09/22 05:27:51;;;;;;;3.38;1.98;;;;;;;23.38;46.07;100619.84;5102316;28;20032;-69
2021/09/22 05:30:17;;;;;;;6.72;2.25;;;;;;;23.77;45.68;100623.88;5101963;28;20032;-69
2021/09/22 05:32:42;;;;;;;2.90;2.00;;;;;;;24.09;44.49;100623.06;5101878;28;20085;-69
2021/09/22 05:35:09;;;;;;;4.25;2.40;;;;;;;24.33;43.34;100622.84;5101816;28;20024;-69
2021/09/22 05:37:35;;;;;;;3.40;2.45;;;;;;;24.72;42.74;100630.34;5102191;28;20466;-69
2021/09/22 05:40:00;;;;;;;3.33;1.73;;;;;;;25.17;42.15;100626.63;5102008;28;20031;-69
2021/09/22 05:42:29;;;;;;;4.47;2.90;;;;;;;25.49;41.19;100632.13;5101773;28;20462;-69
2021/09/22 05:44:55;;;;;;;3.90;2.60;;;;;;;25.73;41.17;100634.63;5101598;28;20051;-69
2021/09/22 05:47:20;;;;;;;3.45;3.00;;;;;;;26.00;39.04;100634.97;5101754;28;20067;-69
2021/09/22 05:49:46;;;;;;;4.05;3.45;;;;;;;26.19;38.60;100633.09;5101817;28;20495;-69
2021/09/22 05:52:12;;;;;;;5.82;3.58;;;;;;;26.31;37.90;100637.16;5101627;28;20027;-69
2021/09/22 05:54:37;;;;;;;4.63;3.35;;;;;;;26.69;38.36;100647.72;5098542;28;20030;-69
2021/09/22 05:57:03;;;;;;;3.70;2.70;;;;;;;27.01;36.66;100641.59;5098720;28;20057;-70
2021/09/22 05:59:29;;;;;;;3.33;2.95;;;;;;;27.28;36.30;100638.16;5098140;28;20030;-69
2021/09/22 06:01:56;;;;;;;3.55;3.00;;;;;;;27.20;34.84;100642.53;5098325;28;20466;-70
2021/09/22 06:04:21;;;;;;;3.10;2.60;;;;;;;27.78;34.98;100646.81;5098284;28;20020;-69
2021/09/22 06:06:47;;;;;;;3.92;3.03;;;;;;;28.09;34.13;100641.81;5097709;28;20061;-69
2021/09/22 06:09:12;;;;;;;5.57;3.08;;;;;;;27.94;34.41;100637.97;5098491;28;20027;-69
2021/09/22 06:11:38;;;;;;;2.63;2.20;;;;;;;27.97;34.18;100639.91;5098339;28;20378;-69
2021/09/22 06:14:04;;;;;;;2.35;2.15;;;;;;;27.41;35.00;100632.34;5097854;28;20023;-69
2021/09/22 06:16:30;;;;;;;3.15;2.38;;;;;;;28.09;33.70;100644.69;5097721;28;20058;-70
2021/09/22 06:18:56;;;;;;;2.30;2.03;;;;;;;28.16;33.56;100650.09;5097514;28;20082;-70
2021/09/22 06:21:21;;;;;;;2.90;2.10;;;;;;;28.52;32.79;100653.53;5097764;28;20495;-69
2021/09/22 06:23:52;;;;;;;3.85;2.25;;;;;;;28.59;32.80;100654.00;5098292;28;20027;-70
2021/09/22 06:26:22;;;;;;;4.20;2.22;;;;;;;28.66;32.75;100659.41;5098202;28;20078;-69
2021/09/22 06:28:48;;;;;;;3.72;2.40;;;;;;;29.21;32.26;100650.00;5098056;28;20031;-70
2021/09/22 06:31:14;;;;;;;4.80;2.60;;;;;;;28.71;32.23;100655.94;5097516;28;20117;-69
2021/09/22 06:33:40;;;;;;;2.95;2.42;;;;;;;28.28;33.06;100668.41;5097348;28;20082;-70
2021/09/22 06:36:06;;;;;;;2.30;2.00;;;;;;;28.26;32.86;100661.56;5097925;28;20043;-70
2021/09/22 06:38:36;;;;;;;2.75;2.15;;;;;;;27.90;33.10;100643.81;5097599;28;20426;-70
2021/09/22 06:41:02;;;;;;;5.07;4.07;;;;;;;27.45;34.45;100670.16;5097470;28;20042;-70
2021/09/22 06:43:28;;;;;;;5.57;3.90;;;;;;;28.11;33.44;100675.66;5097465;28;20147;-69
2021/09/22 06:45:53;;;;;;;3.65;3.35;;;;;;;28.10;33.21;100674.88;5097427;28;20047;-70
2021/09/22 06:48:19;;;;;;;4.75;3.35;;;;;;;27.91;33.72;100667.50;5097347;28;20537;-70
2021/09/22 06:50:46;;;;;;;4.25;2.92;;;;;;;27.17;34.67;100671.25;5097499;28;20035;-69
2021/09/22 06:53:12;;;;;;;3.55;3.17;;;;;;;26.27;36.55;100660.13;5097298;28;20127;-70
2021/09/22 06:55:40;;;;;;;2.03;1.60;;;;;;;26.32;36.35;100668.09;5097252;28;20042;-69
2021/09/22 06:58:06;;;;;;;2.10;1.90;;;;;;;25.50;38.31;100665.03;5097022;28;20032;-69
2021/09/22 07:00:35;;;;;;;3.80;2.35;;;;;;;26.34;37.02;100659.09;5097598;28;20470;-69
2021/09/22 07:03:02;;;;;;;2.78;1.80;;;;;;;26.93;35.08;100662.31;5097010;28;20139;-69
2021/09/22 07:05:28;;;;;;;3.30;1.58;;;;;;;26.97;35.60;100655.22;5096796;28;20031;-69
2021/09/22 07:07:54;;;;;;;2.60;1.48;;;;;;;27.31;34.56;100660.06;5096832;28;20062;-69
2021/09/22 07:10:19;;;;;;;2.00;1.65;;;;;;;27.37;34.69;100645.97;5096923;28;20096;-69
2021/09/22 07:12:45;;;;;;;1.70;1.55;;;;;;;27.55;34.29;100640.34;5096830;28;20036;-69
2021/09/22 07:15:12;;;;;;;5.43;1.70;;;;;;;27.28;34.42;100654.50;5097044;28;20494;-69
2021/09/22 07:17:38;;;;;;;2.00;1.75;;;;;;;27.18;35.58;100667.13;5115401;28;20115;-69
2021/09/22 07:20:04;;;;;;;2.33;1.60;;;;;;;28.02;33.67;100662.16;5096829;28;20102;-69
2021/09/22 07:22:30;;;;;;;2.78;1.60;;;;;;;27.91;33.37;100667.50;5096673;28;20387;-69
2021/09/22 07:24:56;;;;;;;3.08;1.80;;;;;;;27.20;34.94;100673.16;5096916;28;20027;-69
2021/09/22 07:27:22;;;;;;;3.00;1.58;;;;;;;28.27;33.15;100671.72;5096699;28;20494;-69
2021/09/22 07:29:47;;;;;;;3.72;1.50;;;;;;;27.75;34.29;100671.44;5096988;28;20043;-69
2021/09/22 07:32:13;;;;;;;2.80;1.80;;;;;;;28.24;33.59;100662.03;5096625;28;20061;-69
2021/09/22 07:34:39;;;;;;;1.65;1.55;;;;;;;27.63;33.79;100670.22;5096875;28;20020;-69
2021/09/22 07:37:10;;;;;;;3.05;1.63;;;;;;;27.14;35.37;100673.75;5096665;28;20031;-69
2021/09/22 07:39:37;;;;;;;1.75;1.45;;;;;;;27.15;35.83;100646.00;5096886;28;20036;-69
2021/09/22 07:42:03;;;;;;;4.30;1.83;;;;;;;27.55;34.84;100663.22;5115046;28;20038;-69
2021/09/22 07:44:29;;;;;;;3.55;1.55;;;;;;;27.89;34.94;100667.19;5096714;28;20024;-70
2021/09/22 07:46:54;;;;;;;2.33;1.70;;;;;;;28.23;33.93;100666.19;5096396;28;20409;-69
2021/09/22 07:49:20;;;;;;;2.00;1.80;;;;;;;28.05;34.48;100668.97;5096367;28;20023;-70
2021/09/22 07:51:45;;;;;;;3.00;1.92;;;;;;;28.47;33.58;100665.59;5096347;28;20028;-69
2021/09/22 07:54:11;;;;;;;3.97;1.70;;;;;;;28.65;33.05;100669.25;5096326;28;20031;-69
2021/09/22 07:56:37;;;;;;;1.83;1.70;;;;;;;28.59;33.11;100636.03;5096131;28;20032;-70
2021/09/22 07:59:03;;;;;;;2.20;1.75;;;;;;;28.58;33.35;100663.06;5096037;28;20031;-69
2021/09/22 08:01:31;;;;;;;5.20;2.10;;;;;;;28.62;33.34;100658.78;5096066;28;20035;-69
2021/09/22 08:03:57;;;;;;;2.08;1.90;;;;;;;28.57;33.12;100659.41;5096137;28;20035;-69
2021/09/22 08:06:23;;;;;;;2.58;1.60;;;;;;;28.86;32.91;100667.50;5095999;28;20031;-69
2021/09/22 08:08:49;;;;;;;2.88;2.00;;;;;;;29.13;32.94;100660.97;5114826;28;20023;-69
2021/09/22 08:11:15;;;;;;;2.97;2.17;;;;;;;29.99;31.47;100659.78;5095973;28;20040;-69
2021/09/22 08:13:41;;;;;;;5.03;1.92;;;;;;;29.21;32.32;100656.53;5096244;28;20110;-69
2021/09/22 08:16:07;;;;;;;4.95;1.83;;;;;;;29.50;31.48;100658.03;5095958;28;20077;-69
2021/09/22 08:18:33;;;;;;;5.88;1.98;;;;;;;29.00;32.25;100654.66;5069016;28;20050;-69
2021/09/22 08:20:59;;;;;;;2.20;1.52;;;;;;;28.94;31.99;100659.44;5059224;28;20377;-69
2021/09/22 08:23:24;;;;;;;2.20;1.40;;;;;;;28.79;32.06;100661.31;4991495;28;20028;-69
2021/09/22 08:25:50;;;;;;;2.05;1.38;;;;;;;28.39;33.30;100662.25;5058412;28;20431;-69
2021/09/22 08:28:18;;;;;;;1.98;1.40;;;;;;;28.50;32.90;100665.47;5058637;28;20125;-68
2021/09/22 08:30:46;;;;;;;3.30;1.48;;;;;;;28.21;33.56;100662.97;5058171;28;20038;-69
2021/09/22 08:33:12;;;;;;;1.58;1.48;;;;;;;29.36;31.15;100658.72;5058181;28;20088;-69
2021/09/22 08:35:38;;;;;;;2.00;1.50;;;;;;;28.42;32.58;100647.00;5058407;28;20030;-69
2021/09/22 08:38:03;;;;;;;2.58;1.80;;;;;;;28.40;32.88;100658.91;5058493;28;20133;-69
2021/09/22 08:40:29;;;;;;;1.60;1.50;;;;;;;28.73;32.07;100663.25;5058486;28;20030;-69
2021/09/22 08:42:55;;;;;;;2.15;1.45;;;;;;;29.05;31.98;100661.81;5058802;28;20030;-69
2021/09/22 08:45:20;;;;;;;3.38;2.00;;;;;;;28.45;32.00;100654.63;5058420;28;20506;-69
2021/09/22 08:47:46;;;;;;;4.30;1.73;;;;;;;28.47;31.98;100649.22;5058660;28;20031;-69
2021/09/22 08:50:15;;;;;;;2.05;1.67;;;;;;;28.14;32.10;100649.00;5058372;28;20124;-69
2021/09/22 08:52:44;;;;;;;2.47;1.90;;;;;;;27.38;33.60;100647.56;4990892;28;20105;-68
2021/09/22 08:55:10;;;;;;;2.30;1.35;;;;;;;28.06;32.30;100645.63;4991104;28;20030;-69
2021/09/22 08:57:36;;;;;;;1.90;1.58;;;;;;;27.78;33.15;100643.97;5058191;28;20480;-68
2021/09/22 09:00:05;;;;;;;1.85;1.42;;;;;;;28.26;31.82;100621.50;5058034;28;20034;-69
2021/09/22 09:02:37;;;;;;;3.13;1.40;;;;;;;29.10;31.13;100627.59;5057935;28;20031;-69
2021/09/22 09:05:10;;;;;;;3.95;1.40;;;;;;;29.46;30.54;100628.75;4990836;28;20420;-69
2021/09/22 09:07:57;;;;;;;3.35;2.28;;;;;;;29.02;30.67;100637.78;5057940;28;20030;-69
2021/09/22 09:10:26;;;;;;;3.03;1.67;;;;;;;29.69;29.53;100630.91;5058869;28;20030;-69
2021/09/22 09:13:05;;;;;;;3.67;1.52;;;;;;;29.94;28.66;100634.63;5058002;28;20038;-69
2021/09/22 09:15:44;;;;;;;1.70;1.42;;;;;;;29.95;29.12;100630.47;5058463;28;20030;-69
2021/09/22 09:18:11;;;;;;;3.80;1.65;;;;;;;28.42;31.12;100627.75;5025103;28;20047;-69
2021/09/22 09:20:36;;;;;;;5.22;1.55;;;;;;;28.08;31.69;100630.88;5095202;28;20474;-69
2021/09/22 09:23:05;;;;;;;3.00;1.60;;;;;;;27.82;31.31;100596.81;5095565;28;20530;-68
2021/09/22 09:25:36;;;;;;;2.00;1.40;;;;;;;28.37;30.73;100619.81;5095418;28;20478;-69
2021/09/22 09:28:35;;;;;;;2.03;1.40;;;;;;;28.25;30.89;100622.78;5113852;28;20107;-69
2021/09/22 09:31:06;;;;;;;2.05;1.77;;;;;;;28.38;30.05;100620.59;5097510;28;20039;-69
2021/09/22 09:33:40;;;;;;;1.30;1.20;;;;;;;28.88;29.86;100613.44;5098821;28;20036;-69
2021/09/22 09:36:23;;;;;;;2.10;1.83;;;;;;;28.86;30.38;100598.78;5117010;28;20023;-69
2021/09/22 09:38:56;;;;;;;2.33;1.63;;;;;;;28.85;29.82;100613.59;5098981;28;20359;-69
2021/09/22 09:41:27;;;;;;;;;;;;;;;28.33;30.74;100619.16;5117421;28;20081;-69
2021/09/22 09:43:53;;;;;;;1.75;1.33;;;;;;;27.90;31.66;100620.16;5099049;28;19964;-69
2021/09/22 09:46:24;;;;;;;1.58;1.48;;;;;;;27.52;32.35;100612.69;5098714;28;20394;-69
2021/09/22 09:49:15;;;;;;;4.47;1.63;;;;;;;27.64;31.87;100611.00;5098615;28;20390;-69
2021/09/22 09:51:43;;;;;;;3.08;1.65;;;;;;;27.45;32.67;100612.19;5104119;28;20039;-69
2021/09/22 09:54:22;;;;;;;1.88;1.70;;;;;;;27.74;32.27;100606.13;5098402;28;20023;-69
2021/09/22 09:56:50;;;;;;;2.05;1.45;;;;;;;27.35;32.25;100599.94;5099269;28;20379;-69
2021/09/22 09:59:19;;;;;;;4.07;1.73;;;;;;;27.74;31.84;100600.41;5098347;28;20020;-69
2021/09/22 10:01:49;;;;;;;2.55;1.77;;;;;;;28.22;31.26;100604.50;5099152;28;20601;-69
2021/09/22 10:04:17;;;;;;;2.17;1.52;;;;;;;27.81;31.75;100600.94;5098631;28;20114;-69
2021/09/22 10:06:43;;;;;;;1.90;1.77;;;;;;;27.78;31.85;100603.94;5098157;28;20038;-69
2021/09/22 10:09:13;;;;;;;3.70;1.80;;;;;;;27.72;31.77;100602.97;5098122;28;20028;-69
2021/09/22 10:11:44;;;;;;;3.63;2.00;;;;;;;28.27;30.64;100597.34;5099058;28;20028;-69
2021/09/22 10:14:10;;;;;;;2.17;1.70;;;;;;;28.30;30.85;100590.69;5098658;28;20051;-69
2021/09/22 10:16:37;;;;;;;2.35;1.60;;;;;;;28.24;31.22;100595.44;5098024;28;20267;-69
2021/09/22 10:19:05;;;;;;;3.17;1.77;;;;;;;28.33;30.79;100599.13;5069198;28;20054;-69
2021/09/22 10:21:33;;;;;;;3.92;1.88;;;;;;;28.17;31.10;100588.75;4993254;28;20113;-69
2021/09/22 10:24:03;;;;;;;5.15;2.25;;;;;;;27.64;31.43;100594.63;4993554;28;20026;-69
2021/09/22 10:26:31;;;;;;;2.85;2.00;;;;;;;28.04;31.56;100582.38;5060546;28;20041;-69
2021/09/22 10:29:01;;;;;;;2.88;1.85;;;;;;;28.69;30.09;100578.28;5060217;28;20045;-69
2021/09/22 10:31:29;;;;;;;2.75;1.90;;;;;;;28.09;31.36;100583.84;5060452;28;20084;-69
2021/09/22 10:33:57;;;;;;;3.70;1.73;;;;;;;28.59;30.33;100578.78;5060849;28;20049;-70
2021/09/22 10:36:38;;;;;;;3.78;1.83;;;;;;;27.76;31.68;100580.75;4993290;28;20106;-68
2021/09/22 10:39:06;;;;;;;3.25;1.70;;;;;;;27.89;31.60;100564.25;5060856;28;20034;-69
2021/09/22 10:41:38;;;;;;;1.90;1.75;;;;;;;28.09;31.91;100563.81;5059934;28;20062;-68
2021/09/22 10:44:04;;;;;;;3.08;1.63;;;;;;;27.91;32.27;100562.53;5059764;28;20042;-68
2021/09/22 10:46:30;;;;;;;2.13;1.92;;;;;;;27.86;32.07;100562.34;5059814;28;20484;-69
2021/09/22 10:48:59;;;;;;;3.17;1.65;;;;;;;27.82;31.62;100570.28;5060769;28;20480;-69
2021/09/22 10:51:35;;;;;;;2.45;1.70;;;;;;;28.52;30.90;100557.00;5060269;28;20057;-69
2021/09/22 10:54:12;;;;;;;6.32;1.70;;;;;;;28.35;31.12;100567.19;5060156;28;20026;-69
2021/09/22 10:56:58;;;;;;;7.95;2.13;;;;;;;29.10;30.26;100560.91;5060264;28;20469;-69
2021/09/22 10:59:39;;;;;;;4.53;1.75;;;;;;;28.83;29.88;100565.41;5060494;28;20161;-69
2021/09/22 11:02:09;;;;;;;2.35;1.90;;;;;;;28.37;31.25;100564.63;4992397;28;20465;-69
2021/09/22 11:04:54;;;;;;;1.92;1.80;;;;;;;28.29;31.45;100557.63;4992331;28;20026;-69
2021/09/22 11:07:20;;;;;;;2.75;1.60;;;;;;;28.29;31.51;100554.78;5059754;28;20027;-69
2021/09/22 11:09:46;;;;;;;1.85;1.45;;;;;;;27.84;32.24;100557.09;5059810;28;20035;-68
2021/09/22 11:12:13;;;;;;;4.50;1.95;;;;;;;28.30;31.20;100556.34;5059707;28;20041;-69
2021/09/22 11:14:39;;;;;;;2.25;1.90;;;;;;;28.62;30.30;100550.00;5060384;28;20026;-69
2021/09/22 11:17:25;;;;;;;3.42;1.50;;;;;;;27.81;31.91;100551.53;4992955;28;20037;-69
2021/09/22 11:19:52;;;;;;;2.90;1.75;;;;;;;28.19;31.31;100549.03;5099410;28;20052;-68
2021/09/22 11:22:27;;;;;;;1.45;1.35;;;;;;;28.82;30.45;100540.13;5095920;28;20153;-69
2021/09/22 11:25:07;;;;;;;4.40;1.52;;;;;;;28.34;31.62;100549.25;5097101;28;20027;-69